createdAt,value
2018-03-29T00:00:12.023Z,-3.60
2018-03-29T00:02:41.214Z,-3.60
2018-03-29T00:05:10.372Z,-3.60
2018-03-29T00:07:38.922Z,-3.60
2018-03-29T00:10:08.278Z,-3.50
2018-03-29T00:12:36.685Z,-3.60
2018-03-29T00:15:05.279Z,-3.60
2018-03-29T00:17:34.446Z,-3.50
2018-03-29T00:20:04.617Z,-3.60
2018-03-29T00:22:33.034Z,-3.50
2018-03-29T00:25:02.386Z,-3.40
2018-03-29T00:27:30.805Z,-3.40
2018-03-29T00:29:59.342Z,-3.40
2018-03-29T00:32:28.545Z,-3.30
2018-03-29T00:34:57.313Z,-3.40
2018-03-29T00:37:25.852Z,-3.30
2018-03-29T00:39:55.109Z,-3.30
2018-03-29T00:42:28.932Z,-3.30
2018-03-29T00:45:02.700Z,-3.30
2018-03-29T00:47:31.163Z,-3.20
2018-03-29T00:49:59.585Z,-3.30
2018-03-29T00:52:28.160Z,-3.30
2018-03-29T00:54:56.605Z,-3.30
2018-03-29T00:57:25.770Z,-3.20
2018-03-29T00:59:54.216Z,-3.30
2018-03-29T01:02:23.240Z,-3.10
2018-03-29T01:04:52.561Z,-3.10
2018-03-29T01:07:21.167Z,-3.10
2018-03-29T01:09:55.865Z,-3.00
2018-03-29T01:12:24.458Z,-3.00
2018-03-29T01:14:52.934Z,-3.10
2018-03-29T01:17:21.343Z,-3.00
2018-03-29T01:19:49.917Z,-3.00
2018-03-29T01:22:18.304Z,-3.00
2018-03-29T01:24:47.868Z,-3.00
2018-03-29T01:27:16.461Z,-3.00
2018-03-29T01:29:44.884Z,-3.00
2018-03-29T01:32:13.392Z,-3.10
2018-03-29T01:34:43.129Z,-3.10
2018-03-29T01:37:11.574Z,-3.10
2018-03-29T01:39:40.152Z,-3.10
2018-03-29T01:42:08.608Z,-3.20
2018-03-29T01:44:37.208Z,-3.10
2018-03-29T01:47:06.419Z,-3.20
2018-03-29T01:49:35.037Z,-3.20
2018-03-29T01:52:04.249Z,-3.10
2018-03-29T01:54:33.419Z,-3.20
2018-03-29T01:57:03.285Z,-3.20
2018-03-29T01:59:31.746Z,-3.10
2018-03-29T02:02:00.939Z,-3.20
2018-03-29T02:04:29.367Z,-3.20
2018-03-29T02:06:59.736Z,-3.20
2018-03-29T02:09:29.002Z,-3.10
2018-03-29T02:11:57.372Z,-3.20
2018-03-29T02:14:25.758Z,-3.10
2018-03-29T02:16:54.217Z,-3.10
2018-03-29T02:19:27.950Z,-3.10
2018-03-29T02:21:56.548Z,-3.10
2018-03-29T02:24:25.700Z,-3.10
2018-03-29T02:26:54.282Z,-3.10
2018-03-29T02:29:22.904Z,-3.00
2018-03-29T02:31:52.094Z,-3.00
2018-03-29T02:34:20.479Z,-3.00
2018-03-29T02:36:49.074Z,-3.00
2018-03-29T02:39:17.472Z,-3.00
2018-03-29T02:41:51.441Z,-3.00
2018-03-29T02:44:21.412Z,-2.90
2018-03-29T02:46:49.800Z,-3.00
2018-03-29T02:49:19.017Z,-2.90
2018-03-29T02:51:47.586Z,-3.00
2018-03-29T02:54:16.175Z,-2.90
2018-03-29T02:56:44.717Z,-2.90
2018-03-29T02:59:13.122Z,-2.90
2018-03-29T03:01:42.331Z,-2.90
2018-03-29T03:04:10.782Z,-2.90
2018-03-29T03:06:39.648Z,-2.90
2018-03-29T03:09:08.086Z,-2.80
2018-03-29T03:11:36.532Z,-2.80
2018-03-29T03:14:05.849Z,-2.70
2018-03-29T03:16:35.203Z,-2.70
2018-03-29T03:19:03.599Z,-2.70
2018-03-29T03:21:33.789Z,-2.70
2018-03-29T03:24:03.176Z,-2.70
2018-03-29T03:26:31.589Z,-2.60
2018-03-29T03:29:03.293Z,-2.60
2018-03-29T03:31:31.734Z,-2.60
2018-03-29T03:34:00.216Z,-2.60
2018-03-29T03:36:28.631Z,-2.70
2018-03-29T03:38:57.291Z,-2.70
2018-03-29T03:41:25.704Z,-2.60
2018-03-29T03:43:54.141Z,-2.60
2018-03-29T03:46:22.625Z,-2.60
2018-03-29T03:48:51.062Z,-2.60
2018-03-29T03:51:24.804Z,-2.50
2018-03-29T03:53:54.141Z,-2.50
2018-03-29T03:56:22.545Z,-2.50
2018-03-29T03:58:51.747Z,-2.50
2018-03-29T04:01:20.136Z,-2.60
2018-03-29T04:03:48.585Z,-2.50
2018-03-29T04:06:16.988Z,-2.40
2018-03-29T04:08:45.383Z,-2.40
2018-03-29T04:11:13.833Z,-2.30
2018-03-29T04:13:47.544Z,-2.30
2018-03-29T04:16:16.010Z,-2.20
2018-03-29T04:18:44.445Z,-2.20
2018-03-29T04:21:13.621Z,-2.30
2018-03-29T04:23:42.101Z,-2.30
2018-03-29T04:26:10.510Z,-2.30
2018-03-29T04:28:39.697Z,-2.30
2018-03-29T04:31:10.142Z,-2.30
2018-03-29T04:33:39.325Z,-2.30
2018-03-29T04:36:08.557Z,-2.30
2018-03-29T04:38:40.501Z,-2.40
2018-03-29T04:41:09.114Z,-2.30
2018-03-29T04:43:37.673Z,-2.20
2018-03-29T04:46:06.857Z,-2.20
2018-03-29T04:48:35.467Z,-2.20
2018-03-29T04:51:04.489Z,-2.20
2018-03-29T04:53:33.037Z,-2.10
2018-03-29T04:56:01.442Z,-2.10
2018-03-29T04:58:29.818Z,-2.10
2018-03-29T05:00:58.224Z,-2.00
2018-03-29T05:03:26.653Z,-2.00
2018-03-29T05:05:55.070Z,-1.90
2018-03-29T05:08:24.382Z,-2.00
2018-03-29T05:10:52.788Z,-1.90
2018-03-29T05:13:21.300Z,-1.90
2018-03-29T05:15:49.728Z,-1.80
2018-03-29T05:18:18.126Z,-1.80
2018-03-29T05:20:46.564Z,-1.80
2018-03-29T05:23:16.511Z,-1.70
2018-03-29T05:25:46.762Z,-1.70
2018-03-29T05:28:15.138Z,-1.70
2018-03-29T05:30:46.084Z,-1.70
2018-03-29T05:33:14.587Z,-1.80
2018-03-29T05:35:42.984Z,-1.70
2018-03-29T05:38:30.995Z,-1.60
2018-03-29T05:40:59.408Z,-1.60
2018-03-29T05:43:30.330Z,-1.60
2018-03-29T05:46:00.308Z,-1.40
2018-03-29T05:48:28.685Z,-1.50
2018-03-29T05:50:57.101Z,-1.40
2018-03-29T05:53:25.688Z,-1.50
2018-03-29T05:55:54.101Z,-1.40
2018-03-29T05:58:22.508Z,-1.40
2018-03-29T06:00:50.950Z,-1.40
2018-03-29T06:03:19.341Z,-1.40
2018-03-29T06:05:50.111Z,-1.40
2018-03-29T06:08:20.368Z,-1.20
2018-03-29T06:10:48.747Z,-1.30
2018-03-29T06:13:17.924Z,-1.00
2018-03-29T06:15:46.366Z,-1.00
2018-03-29T06:18:14.944Z,-0.70
2018-03-29T06:20:43.326Z,-0.60
2018-03-29T06:23:11.746Z,-0.40
2018-03-29T06:25:40.264Z,-0.30
2018-03-29T06:28:10.837Z,-0.10
2018-03-29T06:30:39.423Z,-0.10
2018-03-29T06:33:07.851Z,-0.10
2018-03-29T06:35:36.285Z,0.00
2018-03-29T06:38:04.733Z,0.20
2018-03-29T06:40:34.070Z,0.20
2018-03-29T06:43:02.472Z,0.20
2018-03-29T06:45:30.881Z,0.40
2018-03-29T06:47:59.433Z,0.50
2018-03-29T06:50:33.635Z,0.50
2018-03-29T06:53:02.196Z,0.30
2018-03-29T06:55:31.425Z,0.20
2018-03-29T06:58:00.034Z,0.20
2018-03-29T07:00:28.647Z,0.20
2018-03-29T07:02:57.805Z,0.30
2018-03-29T07:05:26.183Z,0.30
2018-03-29T07:07:54.589Z,0.50
2018-03-29T07:10:23.361Z,0.60
2018-03-29T07:12:53.519Z,0.60
2018-03-29T07:15:21.883Z,0.60
2018-03-29T07:17:53.412Z,0.60
2018-03-29T07:20:21.983Z,0.60
2018-03-29T07:22:50.377Z,0.60
2018-03-29T07:25:18.777Z,0.60
2018-03-29T07:27:47.235Z,0.50
2018-03-29T07:30:15.805Z,0.60
2018-03-29T07:32:45.308Z,0.50
2018-03-29T07:35:18.917Z,0.70
2018-03-29T07:37:47.300Z,0.70
2018-03-29T07:40:15.855Z,0.80
2018-03-29T07:42:44.437Z,0.90
2018-03-29T07:45:13.742Z,1.00
2018-03-29T07:47:42.158Z,1.00
2018-03-29T07:50:11.317Z,1.50
2018-03-29T07:52:39.885Z,1.50
2018-03-29T07:55:09.982Z,1.60
2018-03-29T07:57:39.796Z,1.70
2018-03-29T08:00:08.405Z,2.00
2018-03-29T08:02:37.768Z,2.30
2018-03-29T08:05:06.384Z,2.30
2018-03-29T08:07:34.819Z,2.60
2018-03-29T08:10:04.019Z,3.40
2018-03-29T08:12:32.581Z,3.40
2018-03-29T08:15:00.979Z,3.90
2018-03-29T08:17:30.333Z,4.20
2018-03-29T08:20:00.932Z,4.40
2018-03-29T08:22:29.383Z,4.40
2018-03-29T08:25:04.464Z,4.70
2018-03-29T08:27:32.876Z,4.60
2018-03-29T08:30:02.179Z,4.60
2018-03-29T08:32:31.701Z,4.10
2018-03-29T08:35:00.305Z,4.10
2018-03-29T08:37:28.888Z,4.00
2018-03-29T08:39:57.315Z,4.50
2018-03-29T08:42:27.252Z,5.00
2018-03-29T08:44:56.302Z,5.50
2018-03-29T08:47:24.712Z,5.60
2018-03-29T08:49:53.089Z,5.90
2018-03-29T08:52:21.496Z,5.50
2018-03-29T08:54:49.975Z,5.40
2018-03-29T08:57:18.381Z,5.20
2018-03-29T08:59:47.567Z,4.50
2018-03-29T09:02:15.965Z,4.50
2018-03-29T09:04:48.056Z,4.30
2018-03-29T09:07:17.565Z,4.30
2018-03-29T09:09:46.734Z,4.50
2018-03-29T09:12:15.365Z,4.50
2018-03-29T09:14:43.932Z,4.70
2018-03-29T09:17:12.360Z,5.20
2018-03-29T09:19:41.579Z,6.80
2018-03-29T09:22:09.979Z,6.80
2018-03-29T09:24:39.310Z,8.40
2018-03-29T09:27:10.016Z,8.30
2018-03-29T09:29:38.591Z,8.80
2018-03-29T09:32:07.711Z,9.20
2018-03-29T09:34:36.340Z,9.20
2018-03-29T09:37:04.762Z,8.30
2018-03-29T09:39:33.219Z,7.90
2018-03-29T09:42:01.615Z,8.50
2018-03-29T09:44:30.009Z,9.10
2018-03-29T09:46:59.122Z,9.90
2018-03-29T09:49:33.111Z,10.50
2018-03-29T09:52:05.017Z,10.40
2018-03-29T09:54:33.396Z,9.90
2018-03-29T09:57:01.862Z,9.10
2018-03-29T09:59:30.253Z,8.00
2018-03-29T10:01:58.665Z,7.70
2018-03-29T10:04:27.293Z,8.00
2018-03-29T10:07:00.388Z,8.40
2018-03-29T10:09:28.837Z,8.40
2018-03-29T10:11:58.003Z,8.60
2018-03-29T10:14:29.662Z,8.50
2018-03-29T10:16:58.061Z,8.70
2018-03-29T10:19:27.376Z,8.50
2018-03-29T10:21:55.760Z,8.10
2018-03-29T10:24:24.223Z,7.80
2018-03-29T10:26:52.648Z,7.70
2018-03-29T10:29:21.035Z,7.80
2018-03-29T10:31:49.474Z,7.90
2018-03-29T10:34:18.063Z,7.90
2018-03-29T10:36:46.529Z,7.20
2018-03-29T10:39:14.928Z,6.90
2018-03-29T10:41:43.362Z,6.70
2018-03-29T10:44:11.781Z,6.90
2018-03-29T10:46:40.201Z,7.10
2018-03-29T10:49:08.609Z,7.30
2018-03-29T10:51:37.008Z,7.20
2018-03-29T10:54:05.586Z,7.10
2018-03-29T10:56:33.969Z,7.00
2018-03-29T10:59:07.677Z,6.70
2018-03-29T11:01:36.088Z,6.60
2018-03-29T11:04:05.455Z,6.70
2018-03-29T11:06:34.671Z,6.50
2018-03-29T11:09:03.052Z,6.50
2018-03-29T11:11:31.431Z,5.60
2018-03-29T11:13:59.860Z,5.10
2018-03-29T11:16:28.250Z,4.70
2018-03-29T11:18:56.673Z,4.60
2018-03-29T11:21:26.414Z,4.40
2018-03-29T11:23:54.942Z,4.40
2018-03-29T11:26:23.337Z,4.50
2018-03-29T11:28:51.770Z,4.70
2018-03-29T11:31:20.937Z,4.60
2018-03-29T11:33:49.321Z,4.60
2018-03-29T11:36:17.745Z,4.60
2018-03-29T11:38:46.907Z,4.70
2018-03-29T11:41:15.293Z,4.70
2018-03-29T11:43:43.689Z,4.50
2018-03-29T11:46:14.413Z,4.40
2018-03-29T11:48:42.855Z,4.30
2018-03-29T11:51:11.260Z,4.50
2018-03-29T11:53:39.648Z,4.60
2018-03-29T11:56:08.202Z,4.90
2018-03-29T11:58:36.610Z,5.20
2018-03-29T12:01:05.331Z,5.60
2018-03-29T12:03:33.895Z,5.90
2018-03-29T12:06:02.378Z,6.10
2018-03-29T12:08:32.229Z,6.20
2018-03-29T12:11:00.793Z,6.20
2018-03-29T12:13:29.177Z,6.30
2018-03-29T12:15:57.604Z,6.10
2018-03-29T12:18:26.165Z,5.90
2018-03-29T12:20:54.557Z,5.90
2018-03-29T12:23:22.961Z,5.80
2018-03-29T12:25:51.328Z,6.20
2018-03-29T12:28:20.607Z,6.40
2018-03-29T12:30:52.597Z,6.40
2018-03-29T12:33:21.158Z,6.40
2018-03-29T12:35:49.533Z,6.30
2018-03-29T12:38:18.877Z,6.20
2018-03-29T12:40:47.501Z,6.10
2018-03-29T12:43:16.046Z,5.90
2018-03-29T12:45:44.600Z,5.40
2018-03-29T12:48:12.993Z,5.20
2018-03-29T12:50:41.561Z,4.90
2018-03-29T12:53:12.653Z,4.80
2018-03-29T12:55:41.777Z,4.70
2018-03-29T12:58:11.278Z,4.60
2018-03-29T13:00:39.764Z,4.50
2018-03-29T13:03:08.336Z,4.50
2018-03-29T13:05:36.813Z,4.60
2018-03-29T13:08:05.196Z,4.80
2018-03-29T13:10:33.599Z,4.90
2018-03-29T13:13:02.073Z,4.70
2018-03-29T13:15:33.947Z,4.70
2018-03-29T13:18:02.338Z,4.70
2018-03-29T13:20:31.682Z,4.70
2018-03-29T13:23:01.057Z,4.70
2018-03-29T13:25:29.623Z,4.70
2018-03-29T13:27:57.984Z,4.80
2018-03-29T13:30:26.404Z,4.80
2018-03-29T13:32:54.871Z,4.80
2018-03-29T13:35:23.436Z,4.80
2018-03-29T13:37:51.814Z,4.70
2018-03-29T13:40:20.262Z,4.60
2018-03-29T13:42:48.823Z,4.10
2018-03-29T13:45:17.360Z,3.90
2018-03-29T13:47:46.530Z,3.80
2018-03-29T13:50:14.925Z,3.80
2018-03-29T13:52:43.473Z,3.90
2018-03-29T13:55:12.665Z,3.80
2018-03-29T13:57:41.036Z,3.80
2018-03-29T14:00:14.988Z,3.70
2018-03-29T14:02:43.409Z,3.70
2018-03-29T14:05:11.854Z,3.70
2018-03-29T14:07:40.216Z,3.70
2018-03-29T14:10:10.467Z,3.70
2018-03-29T14:12:38.855Z,3.70
2018-03-29T14:15:07.422Z,3.70
2018-03-29T14:17:35.868Z,3.40
2018-03-29T14:20:04.357Z,3.30
2018-03-29T14:22:32.755Z,3.10
2018-03-29T14:25:03.606Z,3.10
2018-03-29T14:27:31.999Z,3.00
2018-03-29T14:30:00.687Z,3.10
2018-03-29T14:32:29.914Z,3.30
2018-03-29T14:34:58.292Z,3.30
2018-03-29T14:37:26.712Z,3.40
2018-03-29T14:39:55.150Z,3.30
2018-03-29T14:42:23.533Z,3.20
2018-03-29T14:44:51.923Z,3.20
2018-03-29T14:47:20.306Z,3.20
2018-03-29T14:49:49.577Z,3.30
2018-03-29T14:52:18.003Z,3.30
2018-03-29T14:54:46.430Z,3.30
2018-03-29T14:57:14.865Z,3.30
2018-03-29T14:59:44.041Z,3.20
2018-03-29T15:02:12.456Z,3.20
2018-03-29T15:04:40.857Z,3.10
2018-03-29T15:07:09.232Z,3.10
2018-03-29T15:09:37.598Z,3.00
2018-03-29T15:12:06.793Z,2.90
2018-03-29T15:14:35.383Z,2.80
2018-03-29T15:17:03.830Z,2.70
2018-03-29T15:19:32.249Z,2.60
2018-03-29T15:22:00.621Z,2.70
2018-03-29T15:24:29.228Z,2.60
2018-03-29T15:26:57.625Z,2.50
2018-03-29T15:29:26.478Z,2.40
2018-03-29T15:32:00.453Z,2.30
2018-03-29T15:34:34.549Z,2.40
2018-03-29T15:37:02.991Z,2.30
2018-03-29T15:39:31.397Z,2.30
2018-03-29T15:41:59.805Z,2.50
2018-03-29T15:44:28.360Z,2.60
2018-03-29T15:46:56.733Z,2.50
2018-03-29T15:49:25.149Z,2.40
2018-03-29T15:51:53.584Z,2.40
2018-03-29T15:54:22.004Z,2.50
2018-03-29T15:56:50.422Z,2.40
2018-03-29T15:59:19.405Z,2.30
2018-03-29T16:01:47.812Z,2.20
2018-03-29T16:04:16.390Z,2.30
2018-03-29T16:06:44.803Z,2.30
2018-03-29T16:09:13.245Z,2.30
2018-03-29T16:11:41.691Z,2.20
2018-03-29T16:14:10.462Z,2.20
2018-03-29T16:16:38.837Z,2.20
2018-03-29T16:19:07.999Z,2.40
2018-03-29T16:21:36.441Z,2.40
2018-03-29T16:24:04.989Z,2.40
2018-03-29T16:26:33.559Z,2.30
2018-03-29T16:29:02.938Z,2.10
2018-03-29T16:31:31.361Z,2.00
2018-03-29T16:34:00.531Z,1.90
2018-03-29T16:36:28.981Z,1.90
2018-03-29T16:38:57.377Z,2.00
2018-03-29T16:41:27.249Z,1.90
2018-03-29T16:43:55.675Z,2.00
2018-03-29T16:46:24.098Z,2.00
2018-03-29T16:48:52.677Z,1.90
2018-03-29T16:51:21.912Z,1.80
2018-03-29T16:53:51.215Z,1.80
2018-03-29T16:56:19.600Z,1.80
2018-03-29T16:58:48.931Z,1.80
2018-03-29T17:01:18.398Z,1.80
2018-03-29T17:03:49.361Z,1.80
2018-03-29T17:06:17.913Z,1.70
2018-03-29T17:08:46.280Z,1.70
2018-03-29T17:11:15.594Z,1.70
2018-03-29T17:13:44.799Z,1.70
2018-03-29T17:16:13.317Z,1.70
2018-03-29T17:18:41.712Z,1.70
2018-03-29T17:21:10.301Z,1.70
2018-03-29T17:23:38.853Z,1.60
2018-03-29T17:26:08.209Z,1.70
2018-03-29T17:28:36.765Z,1.60
2018-03-29T17:31:05.331Z,1.60
2018-03-29T17:33:34.672Z,1.70
2018-03-29T17:36:03.240Z,1.70
2018-03-29T17:38:32.443Z,1.60
2018-03-29T17:41:01.013Z,1.60
2018-03-29T17:43:29.582Z,1.40
2018-03-29T17:45:58.003Z,1.50
2018-03-29T17:48:26.403Z,1.40
2018-03-29T17:50:54.828Z,1.30
2018-03-29T17:53:23.285Z,1.30
2018-03-29T17:55:52.356Z,1.30
2018-03-29T17:58:20.790Z,1.30
2018-03-29T18:00:49.159Z,1.30
2018-03-29T18:03:27.617Z,1.20
2018-03-29T18:05:56.010Z,1.30
2018-03-29T18:08:24.405Z,1.20
2018-03-29T18:10:52.976Z,1.10
2018-03-29T18:13:22.330Z,1.10
2018-03-29T18:15:51.512Z,1.00
2018-03-29T18:18:19.917Z,1.00
2018-03-29T18:20:48.452Z,1.10
2018-03-29T18:23:17.369Z,1.10
2018-03-29T18:25:45.779Z,1.00
2018-03-29T18:28:14.143Z,1.00
2018-03-29T18:30:43.943Z,0.90
2018-03-29T18:33:12.522Z,1.00
2018-03-29T18:35:40.882Z,1.00
2018-03-29T18:38:10.047Z,1.00
2018-03-29T18:40:38.604Z,1.00
2018-03-29T18:43:07.924Z,1.00
2018-03-29T18:45:37.339Z,0.90
2018-03-29T18:48:05.723Z,0.90
2018-03-29T18:50:34.941Z,1.00
2018-03-29T18:53:08.587Z,1.00
2018-03-29T18:55:38.410Z,1.10
2018-03-29T18:58:06.828Z,1.00
2018-03-29T19:00:35.245Z,1.00
2018-03-29T19:03:04.405Z,1.00
2018-03-29T19:05:32.801Z,1.00
2018-03-29T19:08:01.256Z,1.00
2018-03-29T19:10:29.671Z,1.10
2018-03-29T19:12:58.086Z,1.10
2018-03-29T19:15:26.450Z,1.10
2018-03-29T19:17:54.852Z,1.10
2018-03-29T19:20:23.409Z,1.10
2018-03-29T19:22:51.800Z,1.10
2018-03-29T19:25:20.207Z,1.10
2018-03-29T19:27:49.375Z,1.10
2018-03-29T19:30:17.929Z,1.10
2018-03-29T19:32:46.314Z,1.10
2018-03-29T19:35:14.892Z,1.00
2018-03-29T19:37:43.297Z,1.10
2018-03-29T19:40:11.697Z,1.10
2018-03-29T19:42:40.144Z,1.10
2018-03-29T19:45:08.576Z,1.00
2018-03-29T19:47:38.172Z,0.80
2018-03-29T19:50:06.722Z,0.80
2018-03-29T19:52:35.112Z,0.80
2018-03-29T19:55:03.689Z,0.80
2018-03-29T19:57:32.837Z,0.70
2018-03-29T20:00:01.220Z,0.70
2018-03-29T20:02:29.645Z,0.70
2018-03-29T20:04:58.224Z,0.70
2018-03-29T20:07:26.638Z,0.70
2018-03-29T20:09:55.034Z,0.70
2018-03-29T20:12:24.351Z,0.70
2018-03-29T20:14:52.770Z,0.80
2018-03-29T20:17:21.183Z,0.90
2018-03-29T20:19:49.625Z,0.80
2018-03-29T20:22:18.008Z,0.80
2018-03-29T20:24:46.393Z,0.80
2018-03-29T20:27:14.788Z,0.80
2018-03-29T20:29:43.182Z,0.90
2018-03-29T20:32:11.583Z,1.00
2018-03-29T20:34:40.084Z,0.90
2018-03-29T20:37:08.496Z,0.90
2018-03-29T20:39:36.882Z,0.90
2018-03-29T20:42:05.243Z,1.00
2018-03-29T20:44:34.565Z,1.10
2018-03-29T20:47:05.520Z,1.10
2018-03-29T20:49:33.925Z,1.00
2018-03-29T20:52:02.516Z,0.90
2018-03-29T20:54:30.913Z,0.90
2018-03-29T20:56:59.491Z,1.00
2018-03-29T20:59:27.897Z,1.00
2018-03-29T21:01:57.080Z,0.90
2018-03-29T21:04:25.522Z,0.90
2018-03-29T21:06:54.600Z,0.90
2018-03-29T21:09:27.523Z,0.80
2018-03-29T21:11:55.981Z,0.90
2018-03-29T21:14:24.392Z,1.00
2018-03-29T21:16:52.820Z,1.00
2018-03-29T21:19:21.222Z,1.00
2018-03-29T21:21:49.633Z,0.80
2018-03-29T21:24:18.827Z,0.80
2018-03-29T21:26:48.146Z,0.60
2018-03-29T21:29:17.436Z,0.80
2018-03-29T21:31:51.871Z,0.90
2018-03-29T21:34:23.263Z,0.80
2018-03-29T21:36:51.681Z,0.80
2018-03-29T21:39:20.089Z,0.80
2018-03-29T21:41:48.440Z,0.80
2018-03-29T21:44:17.578Z,0.80
2018-03-29T21:46:46.004Z,0.80
2018-03-29T21:49:15.160Z,0.80
2018-03-29T21:51:43.558Z,0.80
2018-03-29T21:54:12.791Z,0.80
2018-03-29T21:56:41.335Z,0.80
2018-03-29T21:59:09.788Z,0.80
2018-03-29T22:02:03.389Z,0.90
2018-03-29T22:04:31.758Z,0.80
2018-03-29T22:07:00.189Z,0.80
2018-03-29T22:09:28.761Z,0.80
2018-03-29T22:11:57.415Z,0.80
2018-03-29T22:14:26.752Z,0.90
2018-03-29T22:16:57.756Z,0.90
2018-03-29T22:19:29.636Z,0.90
2018-03-29T22:21:58.104Z,0.90
2018-03-29T22:24:26.481Z,0.80
2018-03-29T22:26:54.868Z,0.70
2018-03-29T22:29:23.283Z,0.70
2018-03-29T22:31:51.651Z,0.70
2018-03-29T22:34:21.248Z,0.80
2018-03-29T22:36:50.396Z,0.80
2018-03-29T22:39:24.475Z,0.80
2018-03-29T22:41:53.605Z,0.90
2018-03-29T22:44:22.075Z,0.90
2018-03-29T22:46:50.435Z,0.90
2018-03-29T22:49:19.790Z,0.90
2018-03-29T22:51:48.141Z,0.90
2018-03-29T22:54:16.610Z,0.90
2018-03-29T22:56:45.777Z,1.00
2018-03-29T22:59:14.151Z,1.00
2018-03-29T23:01:43.335Z,0.90
2018-03-29T23:04:14.141Z,0.90
2018-03-29T23:06:42.599Z,0.80
2018-03-29T23:09:10.988Z,0.90
2018-03-29T23:11:39.533Z,0.90
2018-03-29T23:14:08.094Z,0.90
2018-03-29T23:16:37.481Z,1.00
2018-03-29T23:19:05.892Z,0.90
2018-03-29T23:21:34.409Z,1.00
2018-03-29T23:24:03.580Z,1.00
2018-03-29T23:26:37.391Z,1.00
2018-03-29T23:29:05.976Z,1.00
2018-03-29T23:31:39.741Z,0.90
2018-03-29T23:34:08.138Z,0.90
2018-03-29T23:36:36.554Z,1.00
2018-03-29T23:39:05.871Z,1.00
2018-03-29T23:41:34.301Z,1.00
2018-03-29T23:44:02.699Z,1.10
2018-03-29T23:46:31.123Z,1.10
2018-03-29T23:49:01.013Z,1.00
2018-03-29T23:51:30.356Z,1.10
2018-03-29T23:53:58.807Z,1.10
2018-03-29T23:56:27.199Z,1.10
2018-03-29T23:58:56.520Z,1.10
